x

Bodega Bay - 48nm Nnw Of San Francisco, Ca (46013) Wave Buoy

8:50pm - Mon 25th May 2015 All times are PDT. -7 hours from GMT.

  • Sig Wave height 4.9ft
  • Peak Period 11s
  • Average Period 7s
  • Wind
    9mph, 11mph gusts
  • Sea Temp 51°f
  • Air Temp 51°f
  • Sea Pressure 1014.7mb
  • Bodega Bay - 48nm Nnw Of San Francisco, Ca
  • Bodega Bay - 48nm Nnw Of San Francisco, Ca

More Historic Weather Station data

Upgrade to MSW Pro to gain access to the past 30 days of data for over 8000 Wavebouys and Weather Stations around the globe.

Join Pro

Comparision Forecast

View Surf forecast
   
Mon 05/25 8:50pm 5ft 11s 7s 9 11 mph 1014.7mb 51f 51f
7:50pm 5.5ft 12s 7s 7 9 mph 1014.5mb 51f 51f
6:50pm 5ft 8s 7s 7 9 mph 1014.5mb 51f 51f
5:50pm 6ft 11s 7s 7 9 mph 1014.5mb 51f 51f
4:50pm 6ft 9s 7s 2 4 mph 1015mb 51f 51f
3:50pm 5.5ft 11s 7s 7
mph
1015.4mb 51f 51f
2:50pm 6ft 9s 7s 7 9 mph 1015.5mb 51f 50f
1:50pm 5.5ft 10s 7s 7
mph
1015.7mb 51f 50f
12:50pm 5ft 9s 7s 4 7 mph 1015.8mb 51f 50f
11:50am 6ft 11s 7s 7 9 mph 1015.7mb 50f 50f
10:50am 6ft 7s 6s 13 16 mph 1015.1mb 50f 50f
9:50am 6ft 7s 6s 11 13 mph 1014.8mb 50f 50f
8:50am 6ft 8s 7s 11 13 mph 1014.6mb 50f 50f
7:50am 7ft 7s 6s 9 11 mph 1014.2mb 50f 50f
6:50am 7ft 8s 6s 13 18 mph 1013.8mb 50f 50f
5:50am 7ft 8s 6s 18 20 mph 1013.3mb 50f 50f
4:50am 6.5ft 8s 6s 18 25 mph 1013.4mb 50f 50f
3:50am 6ft 8s 6s 13 18 mph 1013.6mb 50f 51f
2:50am 6.5ft 8s 6s 18 20 mph 1013.7mb 50f 51f
1:50am 6ft 7s 6s 18 22 mph 1014.1mb 50f 51f
12:50am 6.5ft 8s 6s 18 25 mph 1014mb 50f 51f
Sun 05/24 11:50pm 6ft 8s 6s 18 22 mph 1014.3mb 50f 51f
10:50pm 6ft 8s 6s 16 18 mph 1014.7mb 50f 51f
9:50pm 6ft 8s 6s 13 16 mph 1014.6mb 50f 51f
8:50pm 6ft 8s 6s 13 16 mph 1014.4mb 50f 51f
7:50pm 7ft 8s 6s 16 18 mph 1014.2mb 50f 52f
6:50pm 6.5ft 8s 6s 18 22 mph 1014.1mb 50f 52f
5:50pm 7ft 7s 6s 18 20 mph 1014.4mb 50f 52f
4:50pm 7ft 7s 6s 18 22 mph 1014.8mb 50f 52f
3:50pm 7ft 8s 6s 18 22 mph 1015.2mb 50f 52f
2:50pm 7ft 8s 6s 18 22 mph 1015.6mb 50f 52f
1:50pm 7.5ft 8s 6s 18 22 mph 1016.1mb 50f 51f
12:50pm 8ft 9s 6s 18 20 mph 1016.5mb 50f 51f
11:50am 7.5ft 8s 6s 18 25 mph 1016.6mb 50f 51f
10:50am 7.5ft 8s 6s 18 22 mph 1016.4mb 50f 51f
9:50am 8ft 8s 6s 20 25 mph 1016.6mb 50f 51f
8:50am 8ft 8s 6s 22 27 mph 1016.5mb 50f 50f
7:50am 8ft 8s 6s 25 29 mph 1016.2mb 50f 50f
6:50am 8ft 8s 6s 22 27 mph 1015.8mb 50f 50f
5:50am 8ft 8s 6s 22 29 mph 1015.6mb 50f 50f
4:50am 8ft 8s 6s 22 29 mph 1015.5mb 50f 50f
3:50am 8ft 8s 6s 22 27 mph 1015.4mb 50f 50f
2:50am 7.5ft 8s 6s 18 22 mph 1015.9mb 50f 51f
1:50am 8ft 8s 6s 22 27 mph 1015.8mb 50f 51f
12:50am 8ft 7s 6s 22 27 mph 1016.3mb 50f 51f
Sat 05/23 11:50pm 8ft 8s 6s 27 29 mph 1016.4mb 50f 51f
10:50pm 8ft 8s 6s 27 31 mph 1016.7mb 50f 52f
9:50pm 8.5ft 7s 6s 29 34 mph 1016.4mb 50f 52f
8:50pm 9ft 7s 6s 29 34 mph 1016.3mb 50f 52f
7:50pm 9ft 7s 6s 29 36 mph 1016.3mb 51f 53f
6:50pm 8ft 7s 6s 29 38 mph 1016.1mb 51f 53f
5:50pm 8ft 8s 5s 31 38 mph 1016.1mb 51f 53f
4:50pm  -   -   -  29 36 mph 1016.2mb 51f 53f
3:50pm 8ft 6s 5s 29 34 mph 1016.9mb 51f 53f
2:50pm 8.5ft 7s 6s 29 36 mph 1017.3mb 51f 53f
1:50pm 8ft 7s 6s 29 36 mph 1017.8mb 51f 53f
12:50pm 7.5ft 7s 6s 27 34 mph 1018.6mb 51f 53f
11:50am 7ft 8s 6s 22 27 mph 1019mb 51f 53f
10:50am 7ft 8s 6s 22 25 mph 1019mb 51f 52f
9:50am 7.5ft 8s 6s 22 27 mph 1018.7mb 51f 52f
8:50am 7ft 7s 6s 22 25 mph 1018.8mb 51f 52f
7:50am 7ft 8s 6s 22 27 mph 1018.1mb 51f 52f
6:50am 7ft 8s 6s 22 27 mph 1017.7mb 51f 52f
5:50am 7.5ft 8s 6s 22 25 mph 1017.5mb 51f 52f
4:50am 7ft 7s 6s 25 31 mph 1017mb 51f 52f
3:50am 7.5ft 7s 6s 27 31 mph 1016.9mb 51f 52f
2:50am 7ft 7s 6s 29 36 mph 1016.6mb 51f 52f
1:50am 6ft 6s 5s 22 29 mph 1017.1mb 51f 52f
12:50am 5.5ft 11s 5s 25 31 mph 1017.1mb 51f 52f
Fri 05/22 11:50pm 5ft 10s 5s 20 25 mph 1017.1mb 51f 52f
10:50pm 5.5ft 11s 5s 20 25 mph 1017mb 52f 53f
9:50pm 5ft 11s 5s 22 29 mph 1016.7mb 52f 54f
8:50pm 4.5ft 10s 5s 22 29 mph 1016.4mb 52f 54f
7:50pm 5.5ft 11s 5s 22 27 mph 1016mb 52f 53f
6:50pm 5ft 10s 5s 22 27 mph 1016.1mb 52f 54f
5:50pm 5ft 11s 5s 18 25 mph 1016.2mb 52f 54f
4:50pm 4.5ft 11s 5s 18 22 mph 1016.3mb 52f 55f
3:50pm 4.5ft 10s 5s 18 22 mph 1016.3mb 52f 54f
2:50pm 4ft 10s 5s 16 18 mph 1016.3mb 53f 54f
1:50pm 4ft 11s 6s 18 20 mph 1016.6mb 52f 54f
12:50pm 3.5ft 11s 7s 13 18 mph 1016.8mb 52f 54f
11:50am 3.5ft 10s 8s 11 13 mph 1017.1mb 52f 53f
10:50am 4ft 11s 8s 4 7 mph 1016.9mb 52f 53f
9:50am 4ft 11s 8s 4 7 mph 1016.7mb 52f 53f
8:50am 4ft 12s 8s 7 9 mph 1016.5mb 51f 53f
7:50am 3.5ft 11s 8s 7
mph
1016.3mb 51f 53f
6:50am 3.5ft 12s 8s 9 11 mph 1015.8mb 51f 53f
5:50am 3.5ft 11s 8s 11 13 mph 1015.5mb 51f 53f
4:50am 3.5ft 12s 8s 9 11 mph 1015.3mb 51f 53f